createdAt,value
2022-09-17T00:01:29.776Z,0.22
2022-09-17T00:04:00.548Z,2.00
2022-09-17T00:06:27.945Z,0.20
2022-09-17T00:08:56.430Z,0.13
2022-09-17T00:11:26.993Z,0.20
2022-09-17T00:13:55.185Z,0.20
2022-09-17T00:16:28.774Z,0.40
2022-09-17T00:18:56.792Z,0.30
2022-09-17T00:21:26.090Z,0.20
2022-09-17T00:24:03.256Z,0.20
2022-09-17T00:26:31.441Z,0.25
2022-09-17T00:28:59.405Z,0.13
2022-09-17T00:31:28.649Z,0.32
2022-09-17T00:33:55.683Z,0.20
2022-09-17T00:36:23.477Z,0.57
2022-09-17T00:38:55.044Z,0.28
2022-09-17T00:41:23.698Z,0.20
2022-09-17T00:43:59.028Z,0.20
2022-09-17T00:46:35.468Z,0.20
2022-09-17T00:49:16.601Z,0.10
2022-09-17T00:52:00.170Z,0.22
2022-09-17T00:54:30.148Z,0.20
2022-09-17T00:57:00.246Z,0.20
2022-09-17T00:59:29.739Z,0.10
2022-09-17T01:01:57.054Z,0.20
2022-09-17T01:04:26.437Z,0.15
2022-09-17T01:07:20.241Z,0.30
2022-09-17T01:10:17.323Z,0.10
2022-09-17T01:13:18.122Z,0.20
2022-09-17T01:16:10.408Z,0.38
2022-09-17T01:19:05.733Z,0.20
2022-09-17T01:25:02.402Z,0.28
2022-09-17T01:27:31.881Z,0.20
2022-09-17T01:30:25.889Z,0.10
2022-09-17T01:33:03.039Z,0.10
2022-09-17T01:35:49.336Z,0.10
2022-09-17T01:38:31.818Z,0.57
2022-09-17T01:41:16.043Z,0.28
2022-09-17T01:43:55.329Z,0.20
2022-09-17T01:46:30.996Z,0.30
2022-09-17T01:49:02.557Z,0.13
2022-09-17T01:51:36.617Z,0.20
2022-09-17T01:54:10.217Z,0.20
2022-09-17T01:56:44.941Z,0.20
2022-09-17T01:59:25.369Z,0.20
2022-09-17T02:01:58.259Z,0.15
2022-09-17T02:04:33.430Z,1.58
2022-09-17T02:07:08.896Z,0.20
2022-09-17T02:09:52.324Z,0.82
2022-09-17T02:12:26.165Z,0.20
2022-09-17T02:14:57.281Z,0.20
2022-09-17T02:17:44.191Z,0.10
2022-09-17T02:20:12.310Z,0.30
2022-09-17T02:22:56.875Z,0.30
2022-09-17T02:25:33.114Z,0.20
2022-09-17T02:28:08.760Z,0.20
2022-09-17T02:30:39.150Z,0.10
2022-09-17T02:33:13.973Z,0.10
2022-09-17T02:35:41.382Z,0.10
2022-09-17T02:38:08.561Z,0.30
2022-09-17T02:40:54.676Z,0.20
2022-09-17T02:43:39.182Z,0.45
2022-09-17T02:46:23.422Z,0.20
2022-09-17T02:49:22.405Z,0.20
2022-09-17T02:52:32.726Z,0.20
2022-09-17T02:55:20.669Z,0.20
2022-09-17T02:58:22.376Z,0.20
2022-09-17T03:00:49.488Z,0.20
2022-09-17T03:03:31.889Z,0.20
2022-09-17T03:06:00.520Z,0.10
2022-09-17T03:08:35.314Z,0.20
2022-09-17T03:11:03.643Z,0.32
2022-09-17T03:13:31.206Z,0.20
2022-09-17T03:15:58.620Z,0.20
2022-09-17T03:18:25.627Z,0.20
2022-09-17T03:20:53.060Z,0.30
2022-09-17T03:23:20.274Z,0.30
2022-09-17T03:25:52.121Z,0.10
2022-09-17T03:28:19.177Z,0.30
2022-09-17T03:30:49.233Z,0.17
2022-09-17T03:33:18.853Z,0.20
2022-09-17T03:35:46.296Z,0.30
2022-09-17T03:38:15.843Z,0.30
2022-09-17T03:40:43.277Z,0.20
2022-09-17T03:43:10.381Z,0.30
2022-09-17T03:45:37.429Z,0.30
2022-09-17T03:48:04.059Z,0.30
2022-09-17T03:50:31.324Z,0.20
2022-09-17T03:52:57.953Z,0.20
2022-09-17T03:55:24.590Z,0.28
2022-09-17T03:57:51.573Z,0.30
2022-09-17T04:00:20.634Z,0.20
2022-09-17T04:02:47.761Z,0.40
2022-09-17T04:05:14.661Z,0.63
2022-09-17T04:07:42.728Z,0.93
2022-09-17T04:10:09.592Z,0.20
2022-09-17T04:12:36.880Z,0.20
2022-09-17T04:15:04.490Z,0.22
2022-09-17T04:17:31.379Z,0.30
2022-09-17T04:19:58.604Z,0.20
2022-09-17T04:22:26.263Z,0.20
2022-09-17T04:24:52.895Z,0.30
2022-09-17T04:27:19.551Z,0.20
2022-09-17T04:29:46.165Z,0.68
2022-09-17T04:32:14.858Z,0.70
2022-09-17T04:34:41.563Z,0.47
2022-09-17T04:37:08.305Z,0.20
2022-09-17T04:39:35.631Z,0.30
2022-09-17T04:42:02.246Z,0.20
2022-09-17T04:44:28.860Z,0.30
2022-09-17T04:46:55.671Z,0.30
2022-09-17T04:49:22.385Z,0.20
2022-09-17T04:51:48.995Z,0.13
2022-09-17T04:54:15.743Z,0.20
2022-09-17T04:56:42.345Z,0.20
2022-09-17T04:59:11.592Z,0.30
2022-09-17T05:01:38.245Z,0.20
2022-09-17T05:04:04.920Z,0.38
2022-09-17T05:06:31.526Z,0.28
2022-09-17T05:08:59.091Z,0.20
2022-09-17T05:11:26.093Z,0.10
2022-09-17T05:13:52.699Z,0.22
2022-09-17T05:16:19.879Z,0.20
2022-09-17T05:18:46.978Z,0.28
2022-09-17T05:21:14.405Z,0.28
2022-09-17T05:23:41.104Z,0.20
2022-09-17T05:26:07.665Z,0.10
2022-09-17T05:28:34.325Z,0.20
2022-09-17T05:31:01.917Z,0.20
2022-09-17T05:33:29.202Z,0.30
2022-09-17T05:35:57.976Z,0.28
2022-09-17T05:38:26.836Z,0.20
2022-09-17T05:40:53.541Z,0.10
2022-09-17T05:43:20.219Z,0.13
2022-09-17T05:45:46.866Z,0.32
2022-09-17T05:48:15.446Z,0.20
2022-09-17T05:50:42.438Z,0.30
2022-09-17T05:53:12.328Z,0.30
2022-09-17T05:55:39.676Z,0.22
2022-09-17T05:58:25.024Z,0.28
2022-09-17T06:00:51.872Z,0.30
2022-09-17T06:03:22.606Z,0.20
2022-09-17T06:06:01.264Z,0.20
2022-09-17T06:08:32.273Z,0.40
2022-09-17T06:11:04.901Z,0.13
2022-09-17T06:13:31.757Z,0.20
2022-09-17T06:15:58.497Z,0.30
2022-09-17T06:18:25.225Z,0.20
2022-09-17T06:20:56.489Z,0.20
2022-09-17T06:23:24.285Z,0.38
2022-09-17T06:25:57.030Z,0.17
2022-09-17T06:28:24.699Z,0.20
2022-09-17T06:30:54.595Z,0.20
2022-09-17T06:33:21.992Z,0.20
2022-09-17T06:35:50.924Z,0.20
2022-09-17T06:38:17.639Z,0.30
2022-09-17T06:40:47.136Z,0.30
2022-09-17T06:43:15.540Z,0.30
2022-09-17T06:45:43.536Z,0.30
2022-09-17T06:48:10.457Z,0.30
2022-09-17T06:50:40.672Z,0.20
2022-09-17T06:53:10.392Z,0.20
2022-09-17T06:55:40.655Z,0.20
2022-09-17T06:58:07.536Z,0.22
2022-09-17T07:00:34.600Z,0.10
2022-09-17T07:03:01.748Z,0.10
2022-09-17T07:05:30.045Z,0.38
2022-09-17T07:07:57.686Z,1.08
2022-09-17T07:10:25.480Z,0.38
2022-09-17T07:12:52.437Z,0.30
2022-09-17T07:15:19.678Z,0.20
2022-09-17T07:17:47.046Z,0.30
2022-09-17T07:20:14.389Z,0.20
2022-09-17T07:22:43.729Z,0.17
2022-09-17T07:25:11.057Z,0.10
2022-09-17T07:27:38.016Z,0.30
2022-09-17T07:30:08.762Z,1.08
2022-09-17T07:32:35.679Z,0.15
2022-09-17T07:35:04.060Z,0.10
2022-09-17T07:37:30.978Z,0.30
2022-09-17T07:39:57.961Z,0.20
2022-09-17T07:42:24.937Z,0.20
2022-09-17T07:44:51.842Z,0.30
2022-09-17T07:47:18.873Z,0.20
2022-09-17T07:49:46.074Z,0.40
2022-09-17T07:52:13.154Z,0.30
2022-09-17T07:54:40.068Z,0.30
2022-09-17T07:57:07.156Z,0.28
2022-09-17T07:59:36.293Z,0.30
2022-09-17T08:02:03.421Z,0.30
2022-09-17T08:04:30.530Z,0.20
2022-09-17T08:06:57.525Z,0.25
2022-09-17T08:09:25.200Z,0.25
2022-09-17T08:11:56.832Z,0.20
2022-09-17T08:14:29.194Z,0.30
2022-09-17T08:16:56.803Z,0.75
2022-09-17T08:19:24.110Z,0.20
2022-09-17T08:21:51.397Z,0.35
2022-09-17T08:24:20.876Z,0.25
2022-09-17T08:26:47.778Z,0.20
2022-09-17T08:29:15.002Z,0.28
2022-09-17T08:31:42.138Z,0.30
2022-09-17T08:34:10.104Z,0.20
2022-09-17T08:36:37.658Z,0.20
2022-09-17T08:39:05.064Z,0.20
2022-09-17T08:41:34.962Z,0.30
2022-09-17T08:44:07.596Z,0.20
2022-09-17T08:46:43.625Z,0.20
2022-09-17T08:49:25.281Z,0.40
2022-09-17T08:51:53.421Z,0.30
2022-09-17T08:55:03.472Z,0.30
2022-09-17T08:57:57.352Z,0.40
2022-09-17T09:00:25.255Z,0.30
2022-09-17T09:03:11.783Z,0.30
2022-09-17T09:05:54.779Z,0.35
2022-09-17T09:08:37.364Z,0.73
2022-09-17T09:11:17.220Z,0.30
2022-09-17T09:14:14.229Z,0.70
2022-09-17T09:16:45.264Z,0.45
2022-09-17T09:19:28.530Z,0.22
2022-09-17T09:22:05.241Z,0.25
2022-09-17T09:24:52.210Z,0.30
2022-09-17T09:27:24.033Z,0.40
2022-09-17T09:30:01.986Z,0.20
2022-09-17T09:32:36.609Z,0.20
2022-09-17T09:37:52.604Z,0.30
2022-09-17T09:40:31.385Z,0.20
2022-09-17T09:43:03.316Z,0.20
2022-09-17T09:45:45.025Z,0.30
2022-09-17T09:48:33.632Z,0.30
2022-09-17T09:51:10.224Z,0.60
2022-09-17T09:53:46.457Z,0.20
2022-09-17T09:56:25.406Z,0.40
2022-09-17T09:58:52.161Z,0.70
2022-09-17T10:01:23.571Z,0.25
2022-09-17T10:04:11.436Z,0.20
2022-09-17T10:09:35.463Z,0.35
2022-09-17T10:48:52.374Z,0.32
2022-09-17T10:55:27.491Z,0.30
2022-09-17T10:58:11.374Z,0.30
2022-09-17T11:14:14.144Z,0.20
2022-09-17T11:30:28.136Z,0.20
2022-09-17T12:07:28.658Z,0.20
2022-09-17T12:10:41.585Z,0.20
2022-09-17T12:13:50.457Z,0.20
2022-09-17T12:16:43.857Z,0.20
2022-09-17T12:19:39.948Z,0.30
2022-09-17T12:22:13.001Z,0.20
2022-09-17T12:24:43.209Z,0.20
2022-09-17T12:28:12.456Z,0.40
2022-09-17T12:30:50.178Z,0.30
2022-09-17T12:40:13.721Z,0.40
2022-09-17T12:45:50.724Z,0.20
2022-09-17T12:48:42.057Z,0.20
2022-09-17T12:51:23.885Z,0.52
2022-09-17T13:07:05.662Z,0.20
2022-09-17T13:10:13.726Z,0.43
2022-09-17T13:12:54.221Z,0.20
2022-09-17T13:15:40.471Z,0.10
2022-09-17T13:21:09.035Z,0.30
2022-09-17T13:23:51.464Z,0.20
2022-09-17T13:26:34.297Z,0.20
2022-09-17T13:29:01.921Z,0.30
2022-09-17T13:31:39.276Z,0.22
2022-09-17T13:34:22.258Z,0.20
2022-09-17T13:36:58.152Z,0.30
2022-09-17T13:40:01.968Z,0.10
2022-09-17T13:42:31.383Z,0.30
2022-09-17T13:45:16.787Z,0.20
2022-09-17T13:47:56.222Z,0.20
2022-09-17T13:50:43.959Z,0.20
2022-09-17T13:53:16.575Z,0.25
2022-09-17T13:56:01.180Z,0.20
2022-09-17T13:58:34.538Z,0.20
2022-09-17T14:01:06.138Z,0.30
2022-09-17T14:03:38.512Z,0.20
2022-09-17T14:06:05.256Z,0.20
2022-09-17T14:08:43.864Z,0.22
2022-09-17T14:11:22.325Z,0.20
2022-09-17T14:13:55.866Z,0.20
2022-09-17T14:16:29.154Z,0.30
2022-09-17T14:18:59.698Z,0.15
2022-09-17T14:21:35.494Z,0.30
2022-09-17T14:24:14.346Z,0.20
2022-09-17T14:26:57.791Z,0.10
2022-09-17T14:29:55.813Z,0.10
2022-09-17T14:32:36.393Z,0.20
2022-09-17T14:35:19.197Z,0.20
2022-09-17T14:37:53.074Z,0.10
2022-09-17T14:40:21.499Z,0.10
2022-09-17T14:42:57.897Z,0.15
2022-09-17T14:45:29.829Z,0.20
2022-09-17T14:48:34.835Z,0.30
2022-09-17T14:51:20.037Z,0.22
2022-09-17T14:53:49.085Z,0.20
2022-09-17T14:56:19.872Z,0.10
2022-09-17T14:58:53.845Z,0.20
2022-09-17T15:01:26.491Z,0.20
2022-09-17T15:04:15.062Z,0.10
2022-09-17T15:06:43.709Z,0.28
2022-09-17T15:09:18.500Z,0.30
2022-09-17T15:11:50.231Z,0.30
2022-09-17T15:14:21.321Z,0.20
2022-09-17T15:16:50.716Z,0.20
2022-09-17T15:19:29.014Z,0.20
2022-09-17T15:21:57.409Z,0.10
2022-09-17T15:24:48.176Z,0.20
2022-09-17T15:27:28.342Z,0.40
2022-09-17T15:30:16.037Z,0.10
2022-09-17T15:32:49.124Z,0.10
2022-09-17T15:35:15.831Z,0.20
2022-09-17T15:38:11.541Z,0.30
2022-09-17T15:40:41.899Z,0.17
2022-09-17T15:43:27.937Z,0.28
2022-09-17T15:45:55.337Z,0.20
2022-09-17T15:48:27.828Z,0.40
2022-09-17T15:50:57.221Z,0.20
2022-09-17T15:53:26.710Z,0.30
2022-09-17T15:56:31.283Z,0.17
2022-09-17T15:59:03.411Z,0.22
2022-09-17T16:01:30.088Z,0.10
2022-09-17T16:04:01.936Z,0.38
2022-09-17T16:06:28.608Z,0.20
2022-09-17T16:08:57.657Z,0.30
2022-09-17T16:11:26.668Z,0.20
2022-09-17T16:13:55.651Z,0.73
2022-09-17T16:16:36.927Z,0.90
2022-09-17T16:19:06.730Z,0.50
2022-09-17T16:21:34.094Z,0.20
2022-09-17T16:24:00.872Z,0.30
2022-09-17T16:26:32.506Z,0.40
2022-09-17T16:29:11.045Z,0.40
2022-09-17T16:31:37.885Z,0.32
2022-09-17T16:34:04.922Z,0.20
2022-09-17T16:36:32.332Z,0.20
2022-09-17T16:38:59.631Z,0.30
2022-09-17T16:41:26.606Z,0.30
2022-09-17T16:43:53.480Z,0.13
2022-09-17T16:46:20.195Z,0.20
2022-09-17T16:48:50.076Z,0.20
2022-09-17T16:51:17.009Z,0.30
2022-09-17T16:53:43.656Z,0.20
2022-09-17T16:56:11.903Z,0.20
2022-09-17T16:58:38.752Z,0.20
2022-09-17T17:01:09.347Z,0.40
2022-09-17T17:03:36.048Z,0.32
2022-09-17T17:06:03.947Z,0.60
2022-09-17T17:08:34.107Z,0.50
2022-09-17T17:11:01.094Z,0.60
2022-09-17T17:13:30.336Z,0.38
2022-09-17T17:15:57.108Z,0.55
2022-09-17T17:18:24.774Z,0.50
2022-09-17T17:20:52.436Z,0.30
2022-09-17T17:23:19.688Z,0.40
2022-09-17T17:25:46.902Z,0.60
2022-09-17T17:28:15.457Z,0.65
2022-09-17T17:30:42.072Z,0.85
2022-09-17T17:33:08.740Z,2.28
2022-09-17T17:35:39.120Z,3.00
2022-09-17T17:38:08.149Z,1.50
2022-09-17T17:40:35.266Z,1.23
2022-09-17T17:43:04.214Z,2.20
2022-09-17T17:45:33.228Z,2.22
2022-09-17T17:48:01.968Z,2.78
2022-09-17T17:50:28.608Z,1.98
2022-09-17T17:52:55.621Z,1.83
2022-09-17T17:55:22.436Z,1.20
2022-09-17T17:58:00.223Z,0.98
2022-09-17T18:00:27.916Z,1.02
2022-09-17T18:02:54.608Z,1.08
2022-09-17T18:05:22.288Z,0.93
2022-09-17T18:07:49.840Z,0.77
2022-09-17T18:10:17.082Z,1.38
2022-09-17T18:12:50.725Z,0.60
2022-09-17T18:15:17.528Z,0.30
2022-09-17T18:17:44.210Z,0.52
2022-09-17T18:20:11.245Z,0.38
2022-09-17T18:22:38.652Z,0.30
2022-09-17T18:25:05.839Z,0.40
2022-09-17T18:27:32.824Z,0.38
2022-09-17T18:29:59.573Z,0.47
2022-09-17T18:32:26.187Z,0.25
2022-09-17T18:34:52.833Z,0.45
2022-09-17T18:37:19.571Z,0.38
2022-09-17T18:39:58.375Z,0.40
2022-09-17T18:42:25.716Z,0.40
2022-09-17T18:44:52.468Z,0.30
2022-09-17T18:47:19.252Z,0.32
2022-09-17T18:49:46.070Z,0.40
2022-09-17T18:52:12.765Z,0.30
2022-09-17T18:54:39.467Z,0.40
2022-09-17T18:57:06.644Z,0.32
2022-09-17T18:59:33.530Z,0.20
2022-09-17T19:02:00.602Z,0.32
2022-09-17T19:04:28.724Z,0.30
2022-09-17T19:06:55.936Z,0.20
2022-09-17T19:09:24.907Z,0.30
2022-09-17T19:11:51.661Z,0.40
2022-09-17T19:14:20.665Z,0.70
2022-09-17T19:16:47.424Z,0.35
2022-09-17T19:19:14.537Z,0.30
2022-09-17T19:21:42.488Z,0.30
2022-09-17T19:24:09.263Z,0.20
2022-09-17T19:26:35.882Z,0.30
2022-09-17T19:29:02.704Z,0.50
2022-09-17T19:31:29.449Z,0.32
2022-09-17T19:33:56.968Z,0.20
2022-09-17T19:36:23.726Z,0.35
2022-09-17T19:38:50.480Z,0.30
2022-09-17T19:41:23.458Z,0.40
2022-09-17T19:43:51.998Z,0.40
2022-09-17T19:46:21.204Z,0.17
2022-09-17T19:48:55.554Z,0.40
2022-09-17T19:51:24.210Z,0.30
2022-09-17T19:53:51.449Z,0.40
2022-09-17T19:56:20.591Z,0.22
2022-09-17T19:58:47.581Z,0.40
2022-09-17T20:01:15.624Z,0.22
2022-09-17T20:03:44.615Z,0.30
2022-09-17T20:06:14.036Z,0.30
2022-09-17T20:08:47.075Z,0.28
2022-09-17T20:11:17.435Z,0.25
2022-09-17T20:13:44.363Z,0.30
2022-09-17T20:16:19.546Z,0.40
2022-09-17T20:18:47.297Z,0.30
2022-09-17T20:21:17.795Z,0.70
2022-09-17T20:23:46.186Z,0.30
2022-09-17T20:26:15.841Z,0.32
2022-09-17T20:28:43.345Z,0.43
2022-09-17T20:31:16.272Z,0.40
2022-09-17T20:33:43.356Z,0.50
2022-09-17T20:36:16.237Z,0.30
2022-09-17T20:41:32.006Z,0.40
2022-09-17T20:44:01.166Z,0.40
2022-09-17T20:46:29.551Z,0.30
2022-09-17T20:48:58.349Z,0.50
2022-09-17T20:51:31.017Z,0.40
2022-09-17T20:53:58.165Z,0.38
2022-09-17T20:56:33.420Z,0.40
2022-09-17T20:59:13.748Z,0.32
2022-09-17T21:01:45.096Z,0.40
2022-09-17T21:04:15.130Z,0.30
2022-09-17T21:06:45.104Z,0.35
2022-09-17T21:09:16.392Z,0.40
2022-09-17T21:11:45.006Z,0.52
2022-09-17T21:14:12.572Z,0.20
2022-09-17T21:16:39.441Z,0.20
2022-09-17T21:19:08.640Z,0.32
2022-09-17T21:21:36.402Z,0.30
2022-09-17T21:24:06.906Z,0.43
2022-09-17T21:26:35.021Z,0.30
2022-09-17T21:29:02.521Z,0.30
2022-09-17T21:31:37.229Z,0.32
2022-09-17T21:34:13.629Z,0.30
2022-09-17T21:36:45.704Z,0.30
2022-09-17T21:39:17.184Z,0.40
2022-09-17T21:41:50.144Z,0.40
2022-09-17T21:44:17.134Z,0.50
2022-09-17T21:46:44.089Z,0.35
2022-09-17T21:49:13.324Z,0.40
2022-09-17T21:51:42.609Z,0.43
2022-09-17T21:54:14.554Z,0.30
2022-09-17T21:56:41.888Z,0.40
2022-09-17T21:59:12.022Z,0.40
2022-09-17T22:01:41.568Z,0.40
2022-09-17T22:04:13.387Z,0.30
2022-09-17T22:06:43.036Z,0.28
2022-09-17T22:09:21.185Z,0.30
2022-09-17T22:11:48.240Z,0.40
2022-09-17T22:14:19.822Z,0.40
2022-09-17T22:16:51.066Z,0.25
2022-09-17T22:19:20.368Z,0.38
2022-09-17T22:21:53.435Z,0.30
2022-09-17T22:24:24.300Z,0.43
2022-09-17T22:26:57.271Z,0.30
2022-09-17T22:29:26.098Z,0.30
2022-09-17T22:31:53.740Z,0.38
2022-09-17T22:34:23.085Z,0.40
2022-09-17T22:36:50.181Z,0.30
2022-09-17T22:39:19.262Z,0.50
2022-09-17T22:41:46.392Z,0.30
2022-09-17T22:44:15.849Z,0.30
2022-09-17T22:46:45.187Z,0.30
2022-09-17T22:49:14.982Z,0.20
2022-09-17T22:51:43.714Z,0.30
2022-09-17T22:54:14.878Z,0.40
2022-09-17T22:56:42.546Z,0.30
2022-09-17T22:59:09.754Z,0.32
2022-09-17T23:01:37.576Z,0.40
2022-09-17T23:04:05.705Z,0.20
2022-09-17T23:06:38.434Z,0.40
2022-09-17T23:09:05.959Z,0.45
2022-09-17T23:11:37.968Z,0.32
2022-09-17T23:14:08.446Z,0.40
2022-09-17T23:16:46.218Z,0.40
2022-09-17T23:19:15.731Z,0.30
2022-09-17T23:21:43.869Z,0.30
2022-09-17T23:24:17.381Z,0.40
2022-09-17T23:26:44.599Z,0.32
2022-09-17T23:29:11.558Z,0.20
2022-09-17T23:31:39.025Z,0.30
2022-09-17T23:34:06.985Z,0.30
2022-09-17T23:36:36.869Z,0.20
2022-09-17T23:39:05.152Z,0.35
2022-09-17T23:41:37.688Z,0.30
2022-09-17T23:44:12.137Z,0.20
2022-09-17T23:46:42.782Z,0.30
2022-09-17T23:49:13.897Z,0.30
2022-09-17T23:51:41.316Z,0.30
2022-09-17T23:54:08.338Z,0.40
2022-09-17T23:56:35.648Z,0.30
2022-09-17T23:59:03.405Z,0.30
